aviador You're here:

LFOV Decoded Metar

LAVAL in FRANCE
Report Time2018-06-17 23:30:00
UTC Time2018-06-17 23:54:39
Flight Rules lifr LIFR
Wind210° at 05 kt
W.Decomp.*RWY 14: 1.6 kt HW 4.7 kt RCW
W.Rank210° ranks 10
Current wind is below 210° avg. (7.6)
Visibility3400 m
Phenomena:Light Drizzle
Mist
Clouds:Overcast 003 Hf
Ceiling300 ft
Temp15°C (ISA +1)
Dew Point15°C (100% RH)
AAT14.8°C
QNH1022 hPa
Density Alt318 ft
Elevation318 ft
Report Wrong Elevation
Raw Report
METAR LFOV 172330Z AUTO 21005KT 3400 -DZ BR OVC003 15/15 Q1022=

Extra information for LFOV:More info

Metar Taf Metar & Taf Last 4 Metars F.Rules Stats Wind Profile Meteogram Temp Stats Airport Information Weather charts Add Link Nearby VenuesMetar ALERT Operation Metar Decoded Social comments